sensor_id;sensor_type;location;lat;lon;timestamp;P1;durP1;ratioP1;P2;durP2;ratioP2
80334;SDS011;69653;52.674;13.574;2024-01-25T09:43:13;12.68;;;2.15;;
80334;SDS011;69653;52.674;13.574;2024-01-25T09:45:38;10.13;;;1.93;;
80334;SDS011;69653;52.674;13.574;2024-01-25T09:48:06;12.85;;;2.03;;
80334;SDS011;69653;52.674;13.574;2024-01-25T09:50:32;12.50;;;2.25;;
80334;SDS011;69653;52.674;13.574;2024-01-25T09:52:59;15.75;;;3.22;;
80334;SDS011;69653;52.674;13.574;2024-01-25T09:55:25;11.90;;;2.17;;
80334;SDS011;69653;52.674;13.574;2024-01-25T09:57:53;12.57;;;2.10;;
80334;SDS011;69653;52.674;13.574;2024-01-25T10:00:30;15.38;;;2.90;;
80334;SDS011;69653;52.674;13.574;2024-01-25T10:32:16;13.35;;;1.92;;
80334;SDS011;69653;52.674;13.574;2024-01-25T10:35:13;11.48;;;2.40;;
80334;SDS011;69653;52.674;13.574;2024-01-25T10:38:43;11.70;;;2.10;;
80334;SDS011;69653;52.674;13.574;2024-01-25T10:41:12;9.73;;;1.90;;
80334;SDS011;69653;52.674;13.574;2024-01-25T10:43:38;12.57;;;1.98;;
80334;SDS011;69653;52.674;13.574;2024-01-25T10:46:04;13.27;;;2.83;;
80334;SDS011;69653;52.674;13.574;2024-01-25T10:48:31;7.72;;;1.75;;
80334;SDS011;69653;52.674;13.574;2024-01-25T10:50:57;12.75;;;2.55;;
80334;SDS011;69653;52.674;13.574;2024-01-25T10:53:27;11.10;;;2.22;;
80334;SDS011;69653;52.674;13.574;2024-01-25T10:55:55;10.07;;;1.85;;
80334;SDS011;69653;52.674;13.574;2024-01-25T10:58:21;12.63;;;1.95;;
80334;SDS011;69653;52.674;13.574;2024-01-25T11:00:57;13.38;;;2.25;;
80334;SDS011;69653;52.674;13.574;2024-01-25T11:03:26;9.00;;;1.45;;
80334;SDS011;69653;52.674;13.574;2024-01-25T11:05:52;5.88;;;1.95;;
80334;SDS011;69653;52.674;13.574;2024-01-25T11:08:20;8.02;;;1.98;;
80334;SDS011;69653;52.674;13.574;2024-01-25T11:10:52;14.10;;;2.42;;
80334;SDS011;69653;52.674;13.574;2024-01-25T11:13:25;10.02;;;1.65;;
80334;SDS011;69653;52.674;13.574;2024-01-25T11:15:52;12.40;;;2.35;;
80334;SDS011;69653;52.674;13.574;2024-01-25T11:18:17;11.85;;;2.45;;
80334;SDS011;69653;52.674;13.574;2024-01-25T11:20:46;13.82;;;2.50;;
80334;SDS011;69653;52.674;13.574;2024-01-25T11:25:57;9.45;;;2.00;;
80334;SDS011;69653;52.674;13.574;2024-01-25T11:28:26;11.27;;;1.92;;
80334;SDS011;69653;52.674;13.574;2024-01-25T11:30:52;10.18;;;2.08;;
80334;SDS011;69653;52.674;13.574;2024-01-25T11:33:17;10.45;;;2.15;;
80334;SDS011;69653;52.674;13.574;2024-01-25T11:35:53;12.30;;;1.92;;
80334;SDS011;69653;52.674;13.574;2024-01-25T11:38:19;11.05;;;2.22;;
80334;SDS011;69653;52.674;13.574;2024-01-25T11:40:45;11.77;;;2.60;;
80334;SDS011;69653;52.674;13.574;2024-01-25T11:43:10;13.10;;;2.27;;
80334;SDS011;69653;52.674;13.574;2024-01-25T11:45:37;7.93;;;2.10;;
80334;SDS011;69653;52.674;13.574;2024-01-25T11:48:07;7.90;;;1.80;;
80334;SDS011;69653;52.674;13.574;2024-01-25T11:53:25;12.57;;;2.40;;
80334;SDS011;69653;52.674;13.574;2024-01-25T11:55:50;11.13;;;2.25;;
80334;SDS011;69653;52.674;13.574;2024-01-25T11:58:16;14.25;;;2.80;;
80334;SDS011;69653;52.674;13.574;2024-01-25T12:00:42;7.97;;;1.48;;
80334;SDS011;69653;52.674;13.574;2024-01-25T12:03:14;10.07;;;2.00;;
80334;SDS011;69653;52.674;13.574;2024-01-25T12:05:41;12.48;;;2.22;;
80334;SDS011;69653;52.674;13.574;2024-01-25T12:08:12;9.35;;;1.55;;
80334;SDS011;69653;52.674;13.574;2024-01-25T12:10:38;13.20;;;2.88;;
80334;SDS011;69653;52.674;13.574;2024-01-25T12:13:07;8.60;;;2.13;;
80334;SDS011;69653;52.674;13.574;2024-01-25T12:15:34;11.93;;;2.38;;
80334;SDS011;69653;52.674;13.574;2024-01-25T12:18:00;11.15;;;2.30;;
80334;SDS011;69653;52.674;13.574;2024-01-25T12:20:26;11.20;;;2.85;;
80334;SDS011;69653;52.674;13.574;2024-01-25T12:22:51;14.88;;;2.83;;
80334;SDS011;69653;52.674;13.574;2024-01-25T12:25:17;11.60;;;2.13;;
80334;SDS011;69653;52.674;13.574;2024-01-25T12:27:42;16.47;;;2.30;;
80334;SDS011;69653;52.674;13.574;2024-01-25T12:30:10;7.85;;;1.45;;
80334;SDS011;69653;52.674;13.574;2024-01-25T12:32:36;9.68;;;1.77;;
80334;SDS011;69653;52.674;13.574;2024-01-25T12:35:01;7.43;;;1.63;;
80334;SDS011;69653;52.674;13.574;2024-01-25T12:37:27;9.68;;;2.03;;
80334;SDS011;69653;52.674;13.574;2024-01-25T12:39:53;12.02;;;2.15;;
80334;SDS011;69653;52.674;13.574;2024-01-25T12:42:19;8.00;;;2.10;;
80334;SDS011;69653;52.674;13.574;2024-01-25T12:44:46;10.77;;;2.58;;
80334;SDS011;69653;52.674;13.574;2024-01-25T12:47:11;7.63;;;1.67;;
80334;SDS011;69653;52.674;13.574;2024-01-25T12:49:40;8.55;;;1.52;;
80334;SDS011;69653;52.674;13.574;2024-01-25T12:52:07;6.50;;;1.33;;
80334;SDS011;69653;52.674;13.574;2024-01-25T12:54:36;9.68;;;2.35;;
80334;SDS011;69653;52.674;13.574;2024-01-25T12:57:02;8.45;;;1.98;;
80334;SDS011;69653;52.674;13.574;2024-01-25T12:59:29;7.20;;;1.50;;
80334;SDS011;69653;52.674;13.574;2024-01-25T13:01:54;8.70;;;1.83;;
80334;SDS011;69653;52.674;13.574;2024-01-25T13:04:20;10.45;;;1.70;;
80334;SDS011;69653;52.674;13.574;2024-01-25T13:06:46;11.38;;;1.60;;
80334;SDS011;69653;52.674;13.574;2024-01-25T13:09:11;8.05;;;1.80;;
80334;SDS011;69653;52.674;13.574;2024-01-25T13:11:37;10.93;;;1.95;;
80334;SDS011;69653;52.674;13.574;2024-01-25T13:14:02;8.07;;;1.83;;
80334;SDS011;69653;52.674;13.574;2024-01-25T13:16:28;12.95;;;1.90;;
80334;SDS011;69653;52.674;13.574;2024-01-25T13:18:53;7.72;;;1.90;;
80334;SDS011;69653;52.674;13.574;2024-01-25T13:21:18;10.50;;;2.53;;
80334;SDS011;69653;52.674;13.574;2024-01-25T13:23:44;10.93;;;1.97;;
80334;SDS011;69653;52.674;13.574;2024-01-25T13:26:10;12.23;;;2.03;;
80334;SDS011;69653;52.674;13.574;2024-01-25T13:28:36;7.57;;;1.98;;
80334;SDS011;69653;52.674;13.574;2024-01-25T13:31:01;7.82;;;1.73;;
80334;SDS011;69653;52.674;13.574;2024-01-25T13:33:27;10.45;;;1.85;;
80334;SDS011;69653;52.674;13.574;2024-01-25T13:35:53;9.17;;;1.97;;
80334;SDS011;69653;52.674;13.574;2024-01-25T13:38:18;11.40;;;1.80;;
80334;SDS011;69653;52.674;13.574;2024-01-25T13:40:43;10.20;;;1.90;;
80334;SDS011;69653;52.674;13.574;2024-01-25T13:43:09;12.97;;;2.27;;
80334;SDS011;69653;52.674;13.574;2024-01-25T13:45:36;11.50;;;2.00;;
80334;SDS011;69653;52.674;13.574;2024-01-25T13:48:10;10.55;;;2.28;;
80334;SDS011;69653;52.674;13.574;2024-01-25T13:50:35;11.83;;;1.87;;
80334;SDS011;69653;52.674;13.574;2024-01-25T13:53:00;11.57;;;2.28;;
80334;SDS011;69653;52.674;13.574;2024-01-25T13:55:32;10.10;;;1.70;;
80334;SDS011;69653;52.674;13.574;2024-01-25T13:57:58;7.43;;;1.50;;
80334;SDS011;69653;52.674;13.574;2024-01-25T14:00:23;12.30;;;2.33;;
80334;SDS011;69653;52.674;13.574;2024-01-25T14:02:48;8.87;;;1.93;;
80334;SDS011;69653;52.674;13.574;2024-01-25T14:05:15;5.75;;;1.42;;
80334;SDS011;69653;52.674;13.574;2024-01-25T14:07:40;10.07;;;1.70;;
80334;SDS011;69653;52.674;13.574;2024-01-25T14:10:07;7.13;;;1.77;;
80334;SDS011;69653;52.674;13.574;2024-01-25T14:12:33;8.05;;;1.50;;
80334;SDS011;69653;52.674;13.574;2024-01-25T14:15:00;10.70;;;1.57;;
80334;SDS011;69653;52.674;13.574;2024-01-25T14:17:56;5.63;;;1.52;;
80334;SDS011;69653;52.674;13.574;2024-01-25T14:20:21;7.10;;;1.53;;
80334;SDS011;69653;52.674;13.574;2024-01-25T14:22:48;9.27;;;1.73;;
80334;SDS011;69653;52.674;13.574;2024-01-25T14:25:14;11.48;;;2.80;;
80334;SDS011;69653;52.674;13.574;2024-01-25T14:27:39;11.80;;;2.28;;
80334;SDS011;69653;52.674;13.574;2024-01-25T14:30:05;17.88;;;3.25;;
80334;SDS011;69653;52.674;13.574;2024-01-25T14:32:35;8.18;;;1.67;;
80334;SDS011;69653;52.674;13.574;2024-01-25T14:38:11;9.80;;;1.90;;
80334;SDS011;69653;52.674;13.574;2024-01-25T14:40:36;12.40;;;2.33;;
80334;SDS011;69653;52.674;13.574;2024-01-25T14:43:01;11.73;;;1.90;;
80334;SDS011;69653;52.674;13.574;2024-01-25T14:45:27;7.93;;;1.30;;
80334;SDS011;69653;52.674;13.574;2024-01-25T14:47:56;10.18;;;1.60;;
80334;SDS011;69653;52.674;13.574;2024-01-25T14:50:22;11.73;;;2.17;;
80334;SDS011;69653;52.674;13.574;2024-01-25T14:52:48;9.65;;;2.00;;
80334;SDS011;69653;52.674;13.574;2024-01-25T14:55:13;8.20;;;1.73;;
80334;SDS011;69653;52.674;13.574;2024-01-25T14:57:39;9.93;;;2.38;;
80334;SDS011;69653;52.674;13.574;2024-01-25T15:00:04;8.87;;;1.33;;
80334;SDS011;69653;52.674;13.574;2024-01-25T15:02:32;9.52;;;1.92;;
80334;SDS011;69653;52.674;13.574;2024-01-25T15:04:58;12.07;;;1.92;;
80334;SDS011;69653;52.674;13.574;2024-01-25T15:07:23;15.17;;;1.93;;
80334;SDS011;69653;52.674;13.574;2024-01-25T15:09:54;8.88;;;1.98;;
80334;SDS011;69653;52.674;13.574;2024-01-25T15:12:47;11.45;;;2.42;;
80334;SDS011;69653;52.674;13.574;2024-01-25T15:15:21;12.35;;;2.10;;
80334;SDS011;69653;52.674;13.574;2024-01-25T15:17:48;7.43;;;1.52;;
80334;SDS011;69653;52.674;13.574;2024-01-25T15:20:13;12.00;;;2.40;;
80334;SDS011;69653;52.674;13.574;2024-01-25T15:22:40;12.70;;;3.55;;
80334;SDS011;69653;52.674;13.574;2024-01-25T15:25:05;11.57;;;2.53;;
80334;SDS011;69653;52.674;13.574;2024-01-25T15:27:31;12.40;;;2.97;;
80334;SDS011;69653;52.674;13.574;2024-01-25T15:29:56;12.90;;;2.10;;
80334;SDS011;69653;52.674;13.574;2024-01-25T15:32:21;11.93;;;1.80;;
80334;SDS011;69653;52.674;13.574;2024-01-25T15:34:47;11.80;;;1.52;;
80334;SDS011;69653;52.674;13.574;2024-01-25T15:37:12;9.13;;;2.20;;
80334;SDS011;69653;52.674;13.574;2024-01-25T15:39:38;11.95;;;2.17;;
80334;SDS011;69653;52.674;13.574;2024-01-25T15:42:04;10.43;;;1.73;;
80334;SDS011;69653;52.674;13.574;2024-01-25T15:44:29;12.73;;;1.90;;
80334;SDS011;69653;52.674;13.574;2024-01-25T15:46:55;7.83;;;1.40;;
80334;SDS011;69653;52.674;13.574;2024-01-25T15:49:20;12.50;;;2.57;;
80334;SDS011;69653;52.674;13.574;2024-01-25T15:51:48;9.27;;;1.80;;
80334;SDS011;69653;52.674;13.574;2024-01-25T15:54:13;10.82;;;2.75;;
80334;SDS011;69653;52.674;13.574;2024-01-25T15:56:39;8.07;;;1.87;;
80334;SDS011;69653;52.674;13.574;2024-01-25T15:59:04;10.80;;;2.78;;
80334;SDS011;69653;52.674;13.574;2024-01-25T16:01:30;10.23;;;2.20;;
80334;SDS011;69653;52.674;13.574;2024-01-25T16:03:55;8.45;;;2.17;;
80334;SDS011;69653;52.674;13.574;2024-01-25T16:06:21;10.27;;;2.63;;
80334;SDS011;69653;52.674;13.574;2024-01-25T16:08:46;14.90;;;2.43;;
80334;SDS011;69653;52.674;13.574;2024-01-25T16:11:12;8.05;;;1.67;;
80334;SDS011;69653;52.674;13.574;2024-01-25T16:13:37;12.18;;;3.22;;
80334;SDS011;69653;52.674;13.574;2024-01-25T16:16:03;11.97;;;1.97;;
80334;SDS011;69653;52.674;13.574;2024-01-25T16:18:29;8.50;;;1.75;;
80334;SDS011;69653;52.674;13.574;2024-01-25T16:20:55;10.68;;;2.15;;
80334;SDS011;69653;52.674;13.574;2024-01-25T16:23:20;11.77;;;1.90;;
80334;SDS011;69653;52.674;13.574;2024-01-25T16:25:46;12.17;;;1.93;;
80334;SDS011;69653;52.674;13.574;2024-01-25T16:28:12;10.15;;;1.67;;
80334;SDS011;69653;52.674;13.574;2024-01-25T16:30:37;13.80;;;2.40;;
80334;SDS011;69653;52.674;13.574;2024-01-25T16:33:03;11.05;;;2.15;;
80334;SDS011;69653;52.674;13.574;2024-01-25T16:35:28;9.57;;;1.52;;
80334;SDS011;69653;52.674;13.574;2024-01-25T16:37:54;10.80;;;1.80;;
80334;SDS011;69653;52.674;13.574;2024-01-25T16:43:41;8.57;;;1.83;;
80334;SDS011;69653;52.674;13.574;2024-01-25T16:46:06;16.70;;;2.63;;
80334;SDS011;69653;52.674;13.574;2024-01-25T16:48:31;7.55;;;1.88;;
80334;SDS011;69653;52.674;13.574;2024-01-25T16:50:58;10.67;;;2.47;;
80334;SDS011;69653;52.674;13.574;2024-01-25T16:53:23;11.05;;;2.35;;
80334;SDS011;69653;52.674;13.574;2024-01-25T16:55:49;8.60;;;1.97;;
80334;SDS011;69653;52.674;13.574;2024-01-25T16:58:14;12.15;;;1.85;;
80334;SDS011;69653;52.674;13.574;2024-01-25T17:00:40;9.80;;;1.75;;
80334;SDS011;69653;52.674;13.574;2024-01-25T17:03:05;8.03;;;1.60;;
80334;SDS011;69653;52.674;13.574;2024-01-25T17:05:31;10.77;;;2.07;;
80334;SDS011;69653;52.674;13.574;2024-01-25T17:07:56;8.53;;;1.87;;
80334;SDS011;69653;52.674;13.574;2024-01-25T17:10:21;14.13;;;2.50;;
80334;SDS011;69653;52.674;13.574;2024-01-25T17:12:47;12.97;;;2.30;;
80334;SDS011;69653;52.674;13.574;2024-01-25T17:15:12;10.15;;;2.53;;
80334;SDS011;69653;52.674;13.574;2024-01-25T17:17:38;12.40;;;1.73;;
80334;SDS011;69653;52.674;13.574;2024-01-25T17:20:04;15.35;;;2.17;;
80334;SDS011;69653;52.674;13.574;2024-01-25T17:22:31;9.40;;;3.10;;
80334;SDS011;69653;52.674;13.574;2024-01-25T17:24:56;16.55;;;2.22;;
80334;SDS011;69653;52.674;13.574;2024-01-25T17:27:22;11.27;;;2.38;;
80334;SDS011;69653;52.674;13.574;2024-01-25T17:29:47;9.47;;;2.17;;
80334;SDS011;69653;52.674;13.574;2024-01-25T17:32:13;9.55;;;1.70;;
80334;SDS011;69653;52.674;13.574;2024-01-25T17:34:38;10.02;;;1.65;;
80334;SDS011;69653;52.674;13.574;2024-01-25T17:37:04;10.27;;;2.17;;
80334;SDS011;69653;52.674;13.574;2024-01-25T17:39:29;13.53;;;2.47;;
80334;SDS011;69653;52.674;13.574;2024-01-25T17:41:54;9.80;;;2.17;;
80334;SDS011;69653;52.674;13.574;2024-01-25T17:44:20;13.53;;;2.37;;
80334;SDS011;69653;52.674;13.574;2024-01-25T17:46:45;15.33;;;2.47;;
80334;SDS011;69653;52.674;13.574;2024-01-25T17:49:10;13.33;;;3.07;;
80334;SDS011;69653;52.674;13.574;2024-01-25T17:51:37;11.70;;;2.15;;
80334;SDS011;69653;52.674;13.574;2024-01-25T17:54:04;12.27;;;2.30;;
80334;SDS011;69653;52.674;13.574;2024-01-25T17:56:29;7.93;;;2.00;;
80334;SDS011;69653;52.674;13.574;2024-01-25T17:58:55;13.23;;;2.53;;
80334;SDS011;69653;52.674;13.574;2024-01-25T18:01:21;12.27;;;2.33;;
80334;SDS011;69653;52.674;13.574;2024-01-25T18:03:46;8.75;;;1.80;;
80334;SDS011;69653;52.674;13.574;2024-01-25T18:06:12;9.50;;;1.67;;
80334;SDS011;69653;52.674;13.574;2024-01-25T18:08:37;12.53;;;2.30;;
80334;SDS011;69653;52.674;13.574;2024-01-25T18:11:02;11.23;;;2.43;;
80334;SDS011;69653;52.674;13.574;2024-01-25T18:13:28;18.50;;;2.33;;
80334;SDS011;69653;52.674;13.574;2024-01-25T18:15:53;21.47;;;5.90;;
80334;SDS011;69653;52.674;13.574;2024-01-25T18:18:18;15.47;;;3.87;;
80334;SDS011;69653;52.674;13.574;2024-01-25T18:20:44;19.20;;;3.13;;
80334;SDS011;69653;52.674;13.574;2024-01-25T18:23:09;10.97;;;2.07;;
80334;SDS011;69653;52.674;13.574;2024-01-25T18:25:34;13.97;;;2.80;;
80334;SDS011;69653;52.674;13.574;2024-01-25T18:27:59;12.33;;;2.43;;
80334;SDS011;69653;52.674;13.574;2024-01-25T18:30:25;13.73;;;2.30;;
80334;SDS011;69653;52.674;13.574;2024-01-25T18:32:50;14.10;;;2.63;;
80334;SDS011;69653;52.674;13.574;2024-01-25T18:35:16;15.23;;;2.70;;
80334;SDS011;69653;52.674;13.574;2024-01-25T18:37:42;12.18;;;2.28;;
80334;SDS011;69653;52.674;13.574;2024-01-25T18:40:08;10.75;;;2.85;;
80334;SDS011;69653;52.674;13.574;2024-01-25T18:42:33;13.73;;;2.80;;
80334;SDS011;69653;52.674;13.574;2024-01-25T18:44:59;9.73;;;2.30;;
80334;SDS011;69653;52.674;13.574;2024-01-25T18:47:24;14.48;;;4.47;;
80334;SDS011;69653;52.674;13.574;2024-01-25T18:49:50;10.90;;;2.88;;
80334;SDS011;69653;52.674;13.574;2024-01-25T18:52:16;12.18;;;2.75;;
80334;SDS011;69653;52.674;13.574;2024-01-25T18:54:41;13.32;;;3.10;;
80334;SDS011;69653;52.674;13.574;2024-01-25T18:57:08;14.77;;;2.47;;
80334;SDS011;69653;52.674;13.574;2024-01-25T18:59:39;11.43;;;2.58;;
80334;SDS011;69653;52.674;13.574;2024-01-25T19:02:05;10.75;;;2.00;;
80334;SDS011;69653;52.674;13.574;2024-01-25T19:04:31;13.35;;;3.08;;
80334;SDS011;69653;52.674;13.574;2024-01-25T19:06:59;12.00;;;2.22;;
80334;SDS011;69653;52.674;13.574;2024-01-25T19:09:25;12.07;;;2.58;;
80334;SDS011;69653;52.674;13.574;2024-01-25T19:11:52;7.68;;;2.33;;
80334;SDS011;69653;52.674;13.574;2024-01-25T19:14:17;10.60;;;2.15;;
80334;SDS011;69653;52.674;13.574;2024-01-25T19:16:43;11.48;;;2.53;;
80334;SDS011;69653;52.674;13.574;2024-01-25T19:19:09;12.60;;;2.92;;
80334;SDS011;69653;52.674;13.574;2024-01-25T19:21:35;11.77;;;2.17;;
80334;SDS011;69653;52.674;13.574;2024-01-25T19:24:01;15.45;;;3.15;;
80334;SDS011;69653;52.674;13.574;2024-01-25T19:26:26;11.43;;;3.13;;
80334;SDS011;69653;52.674;13.574;2024-01-25T19:28:52;13.07;;;2.53;;
80334;SDS011;69653;52.674;13.574;2024-01-25T19:31:17;14.20;;;2.17;;
80334;SDS011;69653;52.674;13.574;2024-01-25T19:33:42;15.27;;;2.30;;
80334;SDS011;69653;52.674;13.574;2024-01-25T19:36:08;14.85;;;3.25;;
80334;SDS011;69653;52.674;13.574;2024-01-25T19:38:34;14.05;;;3.15;;
80334;SDS011;69653;52.674;13.574;2024-01-25T19:41:03;11.30;;;2.83;;
80334;SDS011;69653;52.674;13.574;2024-01-25T19:43:30;13.60;;;2.78;;
80334;SDS011;69653;52.674;13.574;2024-01-25T19:45:55;10.30;;;2.13;;
80334;SDS011;69653;52.674;13.574;2024-01-25T19:48:20;15.47;;;2.17;;
80334;SDS011;69653;52.674;13.574;2024-01-25T19:50:46;11.60;;;2.80;;
80334;SDS011;69653;52.674;13.574;2024-01-25T19:53:11;13.87;;;2.37;;
80334;SDS011;69653;52.674;13.574;2024-01-25T19:55:37;8.07;;;1.97;;
80334;SDS011;69653;52.674;13.574;2024-01-25T19:58:02;10.47;;;2.10;;
80334;SDS011;69653;52.674;13.574;2024-01-25T20:00:28;10.82;;;1.90;;
80334;SDS011;69653;52.674;13.574;2024-01-25T20:02:56;12.65;;;2.05;;
80334;SDS011;69653;52.674;13.574;2024-01-25T20:05:22;12.63;;;2.58;;
80334;SDS011;69653;52.674;13.574;2024-01-25T20:07:48;8.80;;;2.22;;
80334;SDS011;69653;52.674;13.574;2024-01-25T20:10:14;9.43;;;1.90;;
80334;SDS011;69653;52.674;13.574;2024-01-25T20:12:40;16.90;;;3.20;;
80334;SDS011;69653;52.674;13.574;2024-01-25T20:15:06;13.85;;;2.70;;
80334;SDS011;69653;52.674;13.574;2024-01-25T20:17:33;12.52;;;2.17;;
80334;SDS011;69653;52.674;13.574;2024-01-25T20:19:58;11.00;;;2.63;;
80334;SDS011;69653;52.674;13.574;2024-01-25T20:22:24;9.57;;;2.17;;
80334;SDS011;69653;52.674;13.574;2024-01-25T20:24:49;17.03;;;2.63;;
80334;SDS011;69653;52.674;13.574;2024-01-25T20:27:14;15.93;;;2.80;;
80334;SDS011;69653;52.674;13.574;2024-01-25T20:29:40;16.93;;;3.10;;
80334;SDS011;69653;52.674;13.574;2024-01-25T20:32:05;18.20;;;3.00;;
80334;SDS011;69653;52.674;13.574;2024-01-25T20:34:31;13.35;;;3.15;;
80334;SDS011;69653;52.674;13.574;2024-01-25T20:36:58;11.88;;;3.05;;
80334;SDS011;69653;52.674;13.574;2024-01-25T20:39:23;11.15;;;2.58;;
80334;SDS011;69653;52.674;13.574;2024-01-25T20:41:49;12.05;;;2.75;;
80334;SDS011;69653;52.674;13.574;2024-01-25T20:44:15;10.00;;;2.60;;
80334;SDS011;69653;52.674;13.574;2024-01-25T20:46:40;15.25;;;3.10;;
80334;SDS011;69653;52.674;13.574;2024-01-25T20:49:06;16.00;;;4.25;;
80334;SDS011;69653;52.674;13.574;2024-01-25T20:51:31;11.25;;;3.33;;
80334;SDS011;69653;52.674;13.574;2024-01-25T20:53:57;13.37;;;3.57;;
80334;SDS011;69653;52.674;13.574;2024-01-25T20:56:22;7.80;;;2.27;;
80334;SDS011;69653;52.674;13.574;2024-01-25T20:58:47;18.43;;;4.23;;
80334;SDS011;69653;52.674;13.574;2024-01-25T21:01:15;34.15;;;8.55;;
80334;SDS011;69653;52.674;13.574;2024-01-25T21:03:40;18.65;;;5.63;;
80334;SDS011;69653;52.674;13.574;2024-01-25T21:06:06;27.73;;;8.35;;
80334;SDS011;69653;52.674;13.574;2024-01-25T21:08:32;22.48;;;6.22;;
80334;SDS011;69653;52.674;13.574;2024-01-25T21:10:58;15.07;;;3.72;;
80334;SDS011;69653;52.674;13.574;2024-01-25T21:13:24;20.98;;;5.45;;
80334;SDS011;69653;52.674;13.574;2024-01-25T21:15:49;15.00;;;3.63;;
80334;SDS011;69653;52.674;13.574;2024-01-25T21:18:15;16.20;;;3.00;;
80334;SDS011;69653;52.674;13.574;2024-01-25T21:20:40;9.80;;;2.30;;
80334;SDS011;69653;52.674;13.574;2024-01-25T21:23:06;14.10;;;3.72;;
80334;SDS011;69653;52.674;13.574;2024-01-25T21:25:31;10.60;;;3.08;;
80334;SDS011;69653;52.674;13.574;2024-01-25T21:27:57;10.45;;;2.78;;
80334;SDS011;69653;52.674;13.574;2024-01-25T21:30:22;10.03;;;3.10;;
80334;SDS011;69653;52.674;13.574;2024-01-25T21:32:47;16.65;;;3.30;;
80334;SDS011;69653;52.674;13.574;2024-01-25T21:35:13;11.73;;;3.28;;
80334;SDS011;69653;52.674;13.574;2024-01-25T21:37:39;16.20;;;3.28;;
80334;SDS011;69653;52.674;13.574;2024-01-25T21:40:04;13.00;;;3.13;;
80334;SDS011;69653;52.674;13.574;2024-01-25T21:42:31;16.67;;;3.85;;
80334;SDS011;69653;52.674;13.574;2024-01-25T21:45:01;12.05;;;3.00;;
80334;SDS011;69653;52.674;13.574;2024-01-25T21:47:28;11.60;;;3.60;;
80334;SDS011;69653;52.674;13.574;2024-01-25T21:49:53;11.97;;;3.30;;
80334;SDS011;69653;52.674;13.574;2024-01-25T21:52:19;15.63;;;3.83;;
80334;SDS011;69653;52.674;13.574;2024-01-25T21:54:44;17.83;;;3.83;;
80334;SDS011;69653;52.674;13.574;2024-01-25T21:57:09;12.60;;;3.10;;
80334;SDS011;69653;52.674;13.574;2024-01-25T21:59:34;7.93;;;2.43;;
80334;SDS011;69653;52.674;13.574;2024-01-25T22:02:00;10.18;;;2.65;;
80334;SDS011;69653;52.674;13.574;2024-01-25T22:04:25;11.03;;;3.03;;
80334;SDS011;69653;52.674;13.574;2024-01-25T22:06:51;12.90;;;4.40;;
80334;SDS011;69653;52.674;13.574;2024-01-25T22:09:16;13.27;;;3.60;;
80334;SDS011;69653;52.674;13.574;2024-01-25T22:11:41;11.63;;;3.33;;
80334;SDS011;69653;52.674;13.574;2024-01-25T22:14:07;12.87;;;2.87;;
80334;SDS011;69653;52.674;13.574;2024-01-25T22:16:32;8.83;;;2.40;;
80334;SDS011;69653;52.674;13.574;2024-01-25T22:18:57;12.00;;;2.73;;
80334;SDS011;69653;52.674;13.574;2024-01-25T22:21:23;9.83;;;2.57;;
80334;SDS011;69653;52.674;13.574;2024-01-25T22:23:48;13.47;;;3.43;;
80334;SDS011;69653;52.674;13.574;2024-01-25T22:26:14;9.10;;;3.10;;
80334;SDS011;69653;52.674;13.574;2024-01-25T22:28:40;13.13;;;3.13;;
80334;SDS011;69653;52.674;13.574;2024-01-25T22:31:05;13.80;;;2.70;;
80334;SDS011;69653;52.674;13.574;2024-01-25T22:33:32;12.68;;;3.20;;
80334;SDS011;69653;52.674;13.574;2024-01-25T22:36:00;11.80;;;3.22;;
80334;SDS011;69653;52.674;13.574;2024-01-25T22:38:27;17.63;;;3.20;;
80334;SDS011;69653;52.674;13.574;2024-01-25T22:40:52;16.90;;;3.73;;
80334;SDS011;69653;52.674;13.574;2024-01-25T22:43:18;17.13;;;3.03;;
80334;SDS011;69653;52.674;13.574;2024-01-25T22:45:43;15.37;;;4.33;;
80334;SDS011;69653;52.674;13.574;2024-01-25T22:48:08;13.87;;;3.07;;
80334;SDS011;69653;52.674;13.574;2024-01-25T22:50:34;13.32;;;3.50;;
80334;SDS011;69653;52.674;13.574;2024-01-25T22:52:59;13.57;;;2.83;;
80334;SDS011;69653;52.674;13.574;2024-01-25T22:55:25;10.67;;;3.37;;
80334;SDS011;69653;52.674;13.574;2024-01-25T22:57:50;13.00;;;3.43;;
80334;SDS011;69653;52.674;13.574;2024-01-25T23:00:15;16.37;;;3.37;;
80334;SDS011;69653;52.674;13.574;2024-01-25T23:02:46;12.65;;;3.00;;
80334;SDS011;69653;52.674;13.574;2024-01-25T23:05:12;12.73;;;3.20;;
80334;SDS011;69653;52.674;13.574;2024-01-25T23:07:38;14.07;;;3.60;;
80334;SDS011;69653;52.674;13.574;2024-01-25T23:10:04;14.95;;;3.10;;
80334;SDS011;69653;52.674;13.574;2024-01-25T23:12:30;19.20;;;4.13;;
80334;SDS011;69653;52.674;13.574;2024-01-25T23:14:55;11.70;;;3.47;;
80334;SDS011;69653;52.674;13.574;2024-01-25T23:17:21;15.17;;;3.30;;
80334;SDS011;69653;52.674;13.574;2024-01-25T23:19:46;16.73;;;3.33;;
80334;SDS011;69653;52.674;13.574;2024-01-25T23:22:12;14.68;;;3.17;;
80334;SDS011;69653;52.674;13.574;2024-01-25T23:24:38;10.30;;;3.17;;
80334;SDS011;69653;52.674;13.574;2024-01-25T23:27:03;11.83;;;2.90;;
80334;SDS011;69653;52.674;13.574;2024-01-25T23:29:29;15.43;;;3.60;;
80334;SDS011;69653;52.674;13.574;2024-01-25T23:31:54;14.20;;;4.00;;
80334;SDS011;69653;52.674;13.574;2024-01-25T23:34:19;12.87;;;3.67;;
80334;SDS011;69653;52.674;13.574;2024-01-25T23:36:45;10.15;;;2.50;;
80334;SDS011;69653;52.674;13.574;2024-01-25T23:39:10;18.23;;;2.93;;
80334;SDS011;69653;52.674;13.574;2024-01-25T23:41:36;14.88;;;4.13;;
80334;SDS011;69653;52.674;13.574;2024-01-25T23:44:02;15.55;;;3.47;;
80334;SDS011;69653;52.674;13.574;2024-01-25T23:46:27;13.73;;;3.50;;
80334;SDS011;69653;52.674;13.574;2024-01-25T23:48:52;10.47;;;3.80;;
80334;SDS011;69653;52.674;13.574;2024-01-25T23:51:17;12.00;;;3.27;;
80334;SDS011;69653;52.674;13.574;2024-01-25T23:53:43;14.47;;;2.87;;
80334;SDS011;69653;52.674;13.574;2024-01-25T23:56:08;11.13;;;3.50;;
80334;SDS011;69653;52.674;13.574;2024-01-25T23:58:33;12.53;;;3.60;;
